Time;durP1;ratioP1;P1;durP2;ratioP2;P2;SDS_P1;SDS_P2;PMS_P1;PMS_P2;Temp;Humidity;BMP_temperature;BMP_pressure;BME280_temperature;BME280_humidity;BME280_pressure;Samples;Min_cycle;Max_cycle;Signal;HPM_P1;HPM_P2
2022/04/04 00:01:12;;;;;;;8.38;4.90;;;;;;;0.43;100.00;101917.53;5009206;28;20033;-40
2022/04/04 00:03:37;;;;;;;9.15;4.93;;;;;;;0.44;100.00;101913.94;4995997;28;20434;-42
2022/04/04 00:06:02;;;;;;;11.60;5.43;;;;;;;0.45;100.00;101913.03;4994102;28;20037;-41
2022/04/04 00:08:28;;;;;;;11.18;5.40;;;;;;;0.46;100.00;101912.97;4993521;28;20487;-40
2022/04/04 00:10:54;;;;;;;14.40;5.32;;;;;;;0.47;100.00;101908.56;4995312;28;20029;-41
2022/04/04 00:13:20;;;;;;;8.13;5.15;;;;;;;0.45;100.00;101899.91;4994444;28;20373;-41
2022/04/04 00:15:45;;;;;;;9.45;5.00;;;;;;;0.45;100.00;101894.66;4994367;28;20033;-42
2022/04/04 00:18:11;;;;;;;11.32;5.25;;;;;;;0.45;100.00;101892.88;4994858;28;20520;-40
2022/04/04 00:20:41;;;;;;;8.05;4.82;;;;;;;0.48;100.00;101889.25;4995143;28;20384;-42
2022/04/04 00:23:12;;;;;;;11.07;5.55;;;;;;;0.46;100.00;101880.56;4994023;28;20030;-42
2022/04/04 00:25:38;;;;;;;9.50;5.13;;;;;;;0.45;100.00;101878.88;4995245;28;20022;-43
2022/04/04 00:28:03;;;;;;;9.77;5.68;;;;;;;0.42;100.00;101879.84;4994294;28;20026;-42
2022/04/04 00:30:29;;;;;;;9.55;5.75;;;;;;;0.43;100.00;101878.94;5008818;28;20681;-43
2022/04/04 00:32:54;;;;;;;10.43;6.05;;;;;;;0.45;100.00;101874.47;4994710;28;20038;-42
2022/04/04 00:35:19;;;;;;;11.27;6.45;;;;;;;0.46;100.00;101865.66;4994091;28;20088;-41
2022/04/04 00:37:45;;;;;;;10.00;6.13;;;;;;;0.45;100.00;101873.63;4993878;28;20054;-41
2022/04/04 00:40:10;;;;;;;14.00;6.68;;;;;;;0.46;100.00;101859.53;4994612;28;20076;-41
2022/04/04 00:42:36;;;;;;;13.32;7.13;;;;;;;0.44;100.00;101858.75;4992773;28;20018;-43
2022/04/04 00:45:01;;;;;;;17.23;7.45;;;;;;;0.45;100.00;101857.84;4994137;28;20275;-41
2022/04/04 00:47:27;;;;;;;15.25;7.88;;;;;;;0.42;100.00;101856.22;4994322;28;20457;-41
2022/04/04 00:49:52;;;;;;;17.83;9.25;;;;;;;0.41;100.00;101851.88;4995503;28;20409;-41
2022/04/04 00:52:17;;;;;;;14.15;8.70;;;;;;;0.43;100.00;101851.81;5013342;28;20025;-40
2022/04/04 00:54:44;;;;;;;14.00;9.07;;;;;;;0.43;100.00;101847.41;5013462;28;20021;-41
2022/04/04 00:57:10;;;;;;;14.95;8.43;;;;;;;0.42;100.00;101840.44;5014596;28;20017;-41
2022/04/04 00:59:36;;;;;;;14.55;8.40;;;;;;;0.45;100.00;101834.19;5013315;28;20473;-41
2022/04/04 01:02:02;;;;;;;18.30;9.05;;;;;;;0.47;100.00;101841.06;5012578;28;20144;-40
2022/04/04 01:04:27;;;;;;;12.82;8.38;;;;;;;0.48;100.00;101834.91;5014500;28;20151;-43
2022/04/04 01:06:52;;;;;;;17.52;9.35;;;;;;;0.45;100.00;101828.94;5013127;28;20536;-42
2022/04/04 01:09:18;;;;;;;16.88;10.15;;;;;;;0.42;100.00;101824.66;5012244;28;20360;-41
2022/04/04 01:12:22;;;;;;;13.95;8.93;;;;;;;0.41;100.00;101816.84;5014011;28;20388;-42
2022/04/04 01:14:48;;;;;;;16.02;9.27;;;;;;;0.40;100.00;101823.06;5010671;28;20033;-41
2022/04/04 01:17:15;;;;;;;15.20;9.70;;;;;;;0.38;100.00;101817.88;5012648;28;20034;-43
2022/04/04 01:19:40;;;;;;;17.33;8.88;;;;;;;0.38;100.00;101804.72;5012967;28;20128;-42
2022/04/04 01:22:08;;;;;;;15.10;9.18;;;;;;;0.36;100.00;101798.69;4999828;28;20133;-41
2022/04/04 01:24:36;;;;;;;17.15;9.15;;;;;;;0.35;100.00;101794.34;4993857;28;20044;-41
2022/04/04 01:27:02;;;;;;;14.88;8.75;;;;;;;0.35;100.00;101791.72;4993805;28;20362;-41
2022/04/04 01:29:28;;;;;;;17.40;9.07;;;;;;;0.32;100.00;101786.59;4993183;28;20026;-40
2022/04/04 01:31:54;;;;;;;14.73;8.65;;;;;;;0.32;100.00;101784.84;4991056;28;20040;-42
2022/04/04 01:34:21;;;;;;;15.13;8.85;;;;;;;0.32;100.00;101778.72;4993858;28;20516;-41
2022/04/04 01:36:46;;;;;;;15.20;9.02;;;;;;;0.29;100.00;101773.59;4992991;28;20025;-43
2022/04/04 01:39:11;;;;;;;20.67;9.88;;;;;;;0.28;100.00;101770.13;4993681;28;20037;-41
2022/04/04 01:41:36;;;;;;;15.32;8.93;;;;;;;0.29;100.00;101758.72;4992545;28;20040;-41
2022/04/04 01:44:03;;;;;;;17.60;9.15;;;;;;;0.26;100.00;101747.50;4993301;28;20436;-41
2022/04/04 01:46:28;;;;;;;17.63;9.35;;;;;;;0.28;100.00;101748.28;4992652;28;20061;-41
2022/04/04 01:48:56;;;;;;;13.18;9.30;;;;;;;0.27;100.00;101742.19;4993573;28;20068;-40
2022/04/04 01:51:21;;;;;;;14.98;8.63;;;;;;;0.31;100.00;101732.38;4992360;28;20408;-41
2022/04/04 01:53:47;;;;;;;17.58;8.63;;;;;;;0.32;100.00;101734.94;4994035;28;20242;-42
2022/04/04 01:56:12;;;;;;;14.75;8.50;;;;;;;0.32;100.00;101732.31;4993524;28;20022;-42
2022/04/04 01:58:39;;;;;;;15.93;8.95;;;;;;;0.31;100.00;101720.09;4994024;28;20021;-41
2022/04/04 02:01:16;;;;;;;16.05;9.93;;;;;;;0.33;100.00;101722.63;4993259;28;20538;-41
2022/04/04 02:03:44;;;;;;;14.48;8.32;;;;;;;0.34;100.00;101711.19;5013980;28;20144;-40
2022/04/04 02:06:09;;;;;;;14.38;9.05;;;;;;;0.34;100.00;101716.44;5012157;28;20029;-42
2022/04/04 02:08:35;;;;;;;16.88;8.63;;;;;;;0.30;100.00;101705.22;5012850;28;20035;-42
2022/04/04 02:11:02;;;;;;;16.23;8.65;;;;;;;0.28;100.00;101707.09;5012552;28;20310;-41
2022/04/04 02:13:28;;;;;;;17.17;9.10;;;;;;;0.29;100.00;101707.94;5008063;28;20110;-41
2022/04/04 02:16:00;;;;;;;13.68;8.32;;;;;;;0.27;100.00;101705.41;4990983;28;20061;-41
2022/04/04 02:18:26;;;;;;;14.73;8.98;;;;;;;0.26;100.00;101694.97;4993215;28;20053;-44
2022/04/04 02:20:52;;;;;;;13.80;8.07;;;;;;;0.24;100.00;101692.41;4991495;28;20032;-42
2022/04/04 02:23:18;;;;;;;16.35;8.40;;;;;;;0.26;100.00;101689.72;4993113;28;20018;-41
2022/04/04 02:25:51;;;;;;;15.43;8.80;;;;;;;0.30;100.00;101686.84;4993400;28;20030;-42
2022/04/04 02:28:16;;;;;;;17.20;8.60;;;;;;;0.31;100.00;101688.56;4992508;28;20028;-43
2022/04/04 02:30:43;;;;;;;17.65;8.80;;;;;;;0.30;100.00;101676.31;5006810;28;20029;-41
2022/04/04 02:33:09;;;;;;;13.80;8.63;;;;;;;0.30;100.00;101675.47;4992798;28;20105;-41
2022/04/04 02:35:34;;;;;;;13.10;7.85;;;;;;;0.35;100.00;101662.97;4992088;28;20211;-41
2022/04/04 02:38:00;;;;;;;15.27;8.52;;;;;;;0.36;100.00;101662.06;4992671;28;20050;-43
2022/04/04 02:40:26;;;;;;;20.75;8.63;;;;;;;0.38;100.00;101649.69;4992687;28;20492;-41
2022/04/04 02:42:52;;;;;;;14.40;8.57;;;;;;;0.40;100.00;101645.22;4992612;28;20441;-41
2022/04/04 02:45:18;;;;;;;12.93;8.75;;;;;;;0.46;100.00;101650.16;4992116;28;20079;-39
2022/04/04 02:47:44;;;;;;;13.20;7.93;;;;;;;0.50;100.00;101643.81;4992771;28;20030;-41
2022/04/04 02:50:11;;;;;;;16.08;7.72;;;;;;;0.55;100.00;101635.72;4995211;28;20040;-42
2022/04/04 02:52:37;;;;;;;11.75;7.50;;;;;;;0.59;100.00;101632.00;5011459;28;20022;-40
2022/04/04 02:56:28;;;;;;;12.20;7.25;;;;;;;0.63;100.00;101622.16;4994253;28;20038;-40
2022/04/04 02:57:48;;;;;;;19.05;8.07;;;;;;;0.70;100.00;101618.31;4992906;28;20041;-40
2022/04/04 03:00:14;;;;;;;15.82;7.43;;;;;;;0.73;100.00;101612.88;4991328;28;20095;-42
2022/04/04 03:02:40;;;;;;;12.85;7.72;;;;;;;0.77;100.00;101606.56;4990880;28;20509;-41
2022/04/04 03:05:05;;;;;;;13.13;7.55;;;;;;;0.82;100.00;101598.44;4991508;28;20088;-42
2022/04/04 03:07:30;;;;;;;16.35;7.80;;;;;;;0.82;100.00;101596.66;4991900;28;20104;-43
2022/04/04 03:09:56;;;;;;;14.27;7.70;;;;;;;0.86;100.00;101586.81;4992295;28;20092;-42
2022/04/04 03:12:21;;;;;;;18.35;7.75;;;;;;;0.87;100.00;101581.50;4992395;28;20284;-42
2022/04/04 03:14:47;;;;;;;12.77;6.65;;;;;;;0.86;100.00;101573.69;4992317;28;20033;-42
2022/04/04 03:17:12;;;;;;;11.73;7.13;;;;;;;0.91;100.00;101577.75;4992180;28;20033;-42
2022/04/04 03:19:37;;;;;;;10.95;7.05;;;;;;;0.93;100.00;101577.69;4993085;28;20391;-41
2022/04/04 03:22:02;;;;;;;13.40;7.53;;;;;;;0.98;100.00;101569.56;5002023;28;20029;-42
2022/04/04 03:24:28;;;;;;;14.95;8.30;;;;;;;0.98;100.00;101566.91;5011693;28;20660;-39
2022/04/04 03:26:53;;;;;;;12.77;7.93;;;;;;;1.01;100.00;101558.88;5011692;28;20037;-40
2022/04/04 03:29:19;;;;;;;13.02;7.70;;;;;;;0.99;100.00;101563.38;5011714;28;20442;-40
2022/04/04 03:31:44;;;;;;;11.57;6.82;;;;;;;1.00;100.00;101558.03;5011311;28;20646;-39
2022/04/04 03:34:09;;;;;;;16.95;7.38;;;;;;;1.05;100.00;101549.88;5014270;28;20048;-40
2022/04/04 03:36:35;;;;;;;11.57;6.72;;;;;;;1.06;100.00;101544.53;5015107;28;20061;-40
2022/04/04 03:39:00;;;;;;;11.00;6.97;;;;;;;1.09;100.00;101539.13;5015487;28;20104;-42
2022/04/04 03:41:25;;;;;;;13.95;7.47;;;;;;;1.13;100.00;101536.31;5015297;28;20091;-42
2022/04/04 03:43:51;;;;;;;13.48;7.28;;;;;;;1.17;100.00;101529.94;5015479;28;20507;-42
2022/04/04 03:46:16;;;;;;;14.13;7.28;;;;;;;1.21;100.00;101519.19;5013262;28;20033;-40
2022/04/04 03:48:41;;;;;;;15.35;7.57;;;;;;;1.22;100.00;101520.03;5016353;28;20438;-40
2022/04/04 03:51:07;;;;;;;13.93;7.63;;;;;;;1.29;100.00;101519.63;5014495;28;20055;-40
2022/04/04 03:53:32;;;;;;;12.27;8.02;;;;;;;1.33;100.00;101511.56;5028166;28;20061;-41
2022/04/04 03:55:57;;;;;;;15.35;7.05;;;;;;;1.39;100.00;101513.84;5015227;28;20033;-40
2022/04/04 03:58:23;;;;;;;12.27;7.68;;;;;;;1.41;100.00;101510.19;5014983;28;20487;-43
2022/04/04 04:00:48;;;;;;;12.95;7.05;;;;;;;1.51;100.00;101499.13;5014308;28;20076;-43
2022/04/04 04:03:14;;;;;;;13.77;6.97;;;;;;;1.54;100.00;101496.34;5015295;28;20648;-41
2022/04/04 04:05:39;;;;;;;16.20;7.07;;;;;;;1.57;100.00;101488.28;5013979;28;20519;-40
2022/04/04 04:08:06;;;;;;;13.95;7.50;;;;;;;1.59;100.00;101481.97;5014945;28;20044;-40
2022/04/04 04:10:31;;;;;;;15.43;7.40;;;;;;;1.57;100.00;101485.63;5014909;28;20033;-40
2022/04/04 04:12:58;;;;;;;13.45;7.32;;;;;;;1.65;100.00;101472.91;5014643;28;20010;-40
2022/04/04 04:15:25;;;;;;;16.58;8.32;;;;;;;1.66;100.00;101472.81;5014897;28;20134;-40
2022/04/04 04:17:52;;;;;;;13.73;7.20;;;;;;;1.71;100.00;101461.16;5015102;28;20132;-40
2022/04/04 04:20:23;;;;;;;16.45;8.25;;;;;;;1.72;100.00;101457.59;5013298;28;20113;-40
2022/04/04 04:23:03;;;;;;;16.60;7.72;;;;;;;1.73;100.00;101464.53;5014152;28;20053;-42
2022/04/04 04:25:30;;;;;;;13.60;7.97;;;;;;;1.74;100.00;101458.34;5013845;28;20527;-41
2022/04/04 04:28:00;;;;;;;12.77;7.78;;;;;;;1.80;100.00;101453.56;5014376;28;20027;-42
2022/04/04 04:30:26;;;;;;;12.27;6.50;;;;;;;1.84;100.00;101441.06;5013630;28;20034;-41
2022/04/04 04:32:55;;;;;;;15.90;8.60;;;;;;;1.88;100.00;101436.47;5014196;28;20025;-43
2022/04/04 04:35:22;;;;;;;13.45;7.38;;;;;;;1.88;100.00;101428.56;5013803;28;20235;-44
2022/04/04 04:37:48;;;;;;;13.85;7.90;;;;;;;1.95;100.00;101430.75;5014395;28;20389;-43
2022/04/04 04:40:14;;;;;;;19.13;8.68;;;;;;;1.96;100.00;101426.34;5014104;28;20033;-42
2022/04/04 04:42:40;;;;;;;14.48;8.40;;;;;;;1.93;100.00;101414.19;5014265;28;20033;-40
2022/04/04 04:45:06;;;;;;;14.27;6.97;;;;;;;1.97;100.00;101420.97;5013592;28;20308;-41
2022/04/04 04:47:33;;;;;;;14.80;7.47;;;;;;;2.02;100.00;101421.56;5014106;28;20064;-41
2022/04/04 04:49:59;;;;;;;15.63;7.82;;;;;;;2.12;100.00;101413.06;5014029;28;20037;-41
2022/04/04 04:52:26;;;;;;;15.60;8.60;;;;;;;2.15;100.00;101413.72;5002317;28;20549;-40
2022/04/04 04:54:52;;;;;;;12.80;7.32;;;;;;;2.16;100.00;101401.44;5009872;28;20651;-42
2022/04/04 04:57:18;;;;;;;13.70;7.95;;;;;;;2.16;100.00;101391.72;5013933;28;20029;-41
2022/04/04 04:59:43;;;;;;;16.38;7.57;;;;;;;2.27;100.00;101391.06;5014037;28;20484;-42
2022/04/04 05:02:09;;;;;;;13.05;8.13;;;;;;;2.31;100.00;101383.81;5013306;28;20039;-41
2022/04/04 05:04:34;;;;;;;14.13;7.50;;;;;;;2.32;100.00;101370.53;5014503;28;20326;-43
2022/04/04 05:06:59;;;;;;;16.85;7.78;;;;;;;2.35;100.00;101378.25;5013125;28;20025;-40
2022/04/04 05:09:25;;;;;;;12.93;7.47;;;;;;;2.37;100.00;101372.91;5003174;28;20021;-41
2022/04/04 05:11:50;;;;;;;18.95;8.30;;;;;;;2.39;100.00;101361.34;4994063;28;20038;-40
2022/04/04 05:14:15;;;;;;;14.18;7.60;;;;;;;2.44;100.00;101355.75;4993097;28;20044;-42
2022/04/04 05:16:44;;;;;;;11.70;7.53;;;;;;;2.54;100.00;101354.22;4993662;28;20030;-41
2022/04/04 05:19:17;;;;;;;13.20;7.55;;;;;;;2.59;100.00;101348.69;4994650;28;20568;-42
2022/04/04 05:21:42;;;;;;;13.18;8.48;;;;;;;2.61;100.00;101345.03;4993165;28;20056;-42
2022/04/04 05:24:08;;;;;;;12.30;7.53;;;;;;;2.66;100.00;101335.94;4993961;28;20021;-42
2022/04/04 05:26:34;;;;;;;12.70;7.88;;;;;;;2.71;100.00;101328.59;4994321;28;20021;-41
2022/04/04 05:28:59;;;;;;;15.50;8.32;;;;;;;2.73;100.00;101326.69;4993609;28;20095;-41
2022/04/04 05:31:25;;;;;;;12.95;7.85;;;;;;;2.83;100.00;101327.78;4992480;28;20455;-40
2022/04/04 05:33:51;;;;;;;14.45;8.10;;;;;;;2.88;100.00;101328.34;4993296;28;20029;-42
2022/04/04 05:36:16;;;;;;;14.13;7.95;;;;;;;2.91;100.00;101316.75;4993094;28;20030;-41
2022/04/04 05:38:41;;;;;;;15.95;7.82;;;;;;;2.91;100.00;101316.75;4994516;28;20239;-41
2022/04/04 05:41:07;;;;;;;13.00;7.25;;;;;;;2.97;100.00;101317.22;4993812;28;20064;-43
2022/04/04 05:43:32;;;;;;;14.07;8.23;;;;;;;2.98;100.00;101315.41;5004506;28;20503;-42
2022/04/04 05:45:58;;;;;;;15.43;8.48;;;;;;;3.02;100.00;101303.72;5012400;28;20554;-41
2022/04/04 05:48:27;;;;;;;14.73;7.75;;;;;;;3.05;100.00;101295.59;5012728;28;20399;-41
2022/04/04 05:50:53;;;;;;;13.02;7.55;;;;;;;3.06;100.00;101299.09;5012190;28;20035;-41
2022/04/04 05:53:19;;;;;;;17.02;8.32;;;;;;;3.13;100.00;101293.28;5012152;28;20025;-41
2022/04/04 05:55:44;;;;;;;16.63;8.52;;;;;;;3.15;100.00;101291.38;5013097;28;20017;-41
2022/04/04 05:58:09;;;;;;;11.90;7.80;;;;;;;3.20;100.00;101282.34;5013420;28;20615;-40
2022/04/04 06:00:35;;;;;;;16.13;8.90;;;;;;;3.18;100.00;101285.91;5012046;28;20033;-42
2022/04/04 06:03:01;;;;;;;14.05;8.10;;;;;;;3.30;100.00;101288.69;5012949;28;20112;-41
2022/04/04 06:05:26;;;;;;;15.07;8.38;;;;;;;3.38;100.00;101275.81;5012556;28;20021;-40
2022/04/04 06:07:52;;;;;;;16.60;8.32;;;;;;;3.41;100.00;101280.03;5013839;28;20352;-42
2022/04/04 06:10:18;;;;;;;12.25;7.28;;;;;;;3.50;100.00;101261.78;5013086;28;20065;-41
2022/04/04 06:12:44;;;;;;;12.20;7.47;;;;;;;3.57;100.00;101264.00;5012616;28;20391;-42
2022/04/04 06:15:10;;;;;;;14.75;8.98;;;;;;;3.61;100.00;101266.31;5011691;28;20114;-41
2022/04/04 06:17:36;;;;;;;16.20;7.82;;;;;;;3.64;100.00;101255.53;5011988;28;20104;-41
2022/04/04 06:20:03;;;;;;;15.75;8.60;;;;;;;3.67;100.00;101260.63;5011815;28;20077;-41
2022/04/04 06:22:34;;;;;;;11.73;8.10;;;;;;;3.70;100.00;101236.63;5002811;28;20033;-41
2022/04/04 06:24:59;;;;;;;10.75;7.65;;;;;;;3.72;100.00;101247.94;5008453;28;20033;-41
2022/04/04 06:27:24;;;;;;;12.75;8.10;;;;;;;3.76;100.00;101242.44;4995380;28;20041;-41
2022/04/04 06:29:50;;;;;;;15.80;8.65;;;;;;;3.80;100.00;101238.63;4999231;28;20047;-43
2022/04/04 06:32:15;;;;;;;13.20;7.65;;;;;;;3.84;100.00;101238.31;4995539;28;20069;-42
2022/04/04 06:34:40;;;;;;;13.30;7.45;;;;;;;3.87;100.00;101224.00;5012653;28;20364;-42
2022/04/04 06:37:06;;;;;;;15.27;8.43;;;;;;;3.90;100.00;101235.25;5010655;28;20422;-41
2022/04/04 06:39:31;;;;;;;23.55;9.00;;;;;;;3.90;100.00;101219.38;5013330;28;20032;-41
2022/04/04 06:41:57;;;;;;;13.57;8.23;;;;;;;3.92;100.00;101221.91;5012598;28;20148;-40
2022/04/04 06:44:23;;;;;;;11.80;7.65;;;;;;;3.91;100.00;101209.66;5012164;28;20518;-40
2022/04/04 06:46:49;;;;;;;13.18;7.97;;;;;;;3.93;100.00;101215.66;5012550;28;20247;-41
2022/04/04 06:49:14;;;;;;;15.13;8.70;;;;;;;3.93;100.00;101202.47;5012912;28;20048;-41
2022/04/04 06:51:39;;;;;;;13.60;8.43;;;;;;;3.96;100.00;101196.97;5012690;28;20477;-43
2022/04/04 06:54:05;;;;;;;17.20;7.75;;;;;;;3.99;100.00;101195.88;5012874;28;20075;-43
2022/04/04 06:56:34;;;;;;;14.68;8.85;;;;;;;4.03;99.83;101192.06;5013140;28;20025;-42
2022/04/04 06:59:00;;;;;;;13.25;8.68;;;;;;;4.06;100.00;101176.00;5012646;28;20045;-40
2022/04/04 07:01:25;;;;;;;13.27;7.93;;;;;;;4.13;99.00;101182.53;5011827;28;20480;-42
2022/04/04 07:03:50;;;;;;;12.75;7.32;;;;;;;4.14;99.37;101163.09;5012382;28;20095;-41
2022/04/04 07:06:16;;;;;;;12.55;8.43;;;;;;;4.20;98.77;101173.19;5012652;28;20104;-41
2022/04/04 07:08:42;;;;;;;21.27;8.13;;;;;;;4.25;98.83;101171.06;5017646;28;20317;-42
2022/04/04 07:11:10;;;;;;;14.48;7.88;;;;;;;4.30;99.42;101166.28;5016350;28;20108;-43
2022/04/04 07:13:36;;;;;;;15.10;8.38;;;;;;;4.34;98.65;101155.47;5016408;28;20430;-42
2022/04/04 07:16:01;;;;;;;14.93;7.57;;;;;;;4.38;98.23;101176.31;5015480;28;20029;-41
2022/04/04 07:18:26;;;;;;;14.32;7.40;;;;;;;4.42;98.85;101147.81;5015830;28;20301;-41
2022/04/04 07:20:52;;;;;;;13.95;7.65;;;;;;;4.47;99.11;101145.69;5015533;28;20039;-39
2022/04/04 07:23:17;;;;;;;15.38;7.05;;;;;;;4.49;99.19;101165.75;5016329;28;20441;-40
2022/04/04 07:25:42;;;;;;;18.00;7.82;;;;;;;4.53;99.75;101141.72;5016839;28;20123;-41
2022/04/04 07:28:08;;;;;;;11.23;7.63;;;;;;;4.53;99.63;101132.03;5016168;28;20048;-40
2022/04/04 07:30:33;;;;;;;15.90;8.45;;;;;;;4.52;99.67;101130.31;5015367;28;20060;-40
2022/04/04 07:33:01;;;;;;;14.88;7.35;;;;;;;4.54;100.00;101123.09;5016012;28;20029;-42
2022/04/04 07:35:27;;;;;;;14.02;7.43;;;;;;;4.57;100.00;101129.97;5014941;28;20033;-42
2022/04/04 07:37:52;;;;;;;13.43;8.23;;;;;;;4.61;100.00;101118.19;5016091;28;20111;-43
2022/04/04 07:40:20;;;;;;;12.73;7.40;;;;;;;4.63;100.00;101148.03;5015393;28;20526;-42
2022/04/04 07:42:47;;;;;;;13.13;8.52;;;;;;;4.57;100.00;101112.31;5015523;28;20030;-41
2022/04/04 07:45:13;;;;;;;13.93;8.23;;;;;;;4.60;100.00;101108.56;5015711;28;20452;-41
2022/04/04 07:47:40;;;;;;;19.88;7.75;;;;;;;4.71;100.00;101110.41;5015918;28;20053;-41
2022/04/04 07:50:09;;;;;;;18.35;8.73;;;;;;;4.82;100.00;101098.06;5012190;28;20297;-41
2022/04/04 07:52:34;;;;;;;13.00;7.68;;;;;;;4.97;98.64;101089.88;5014278;28;20808;-41
2022/04/04 07:55:00;;;;;;;14.05;7.95;;;;;;;5.03;98.21;101082.31;5014550;28;20120;-41
2022/04/04 07:57:25;;;;;;;12.95;8.05;;;;;;;5.14;97.56;101072.69;5015628;28;20363;-41
2022/04/04 07:59:51;;;;;;;14.52;7.72;;;;;;;5.22;98.10;101065.00;5013994;28;20495;-41
2022/04/04 08:02:17;;;;;;;13.95;8.18;;;;;;;5.29;96.33;101065.34;5009605;28;20550;-43
2022/04/04 08:04:42;;;;;;;14.40;8.63;;;;;;;5.32;96.22;101068.59;5014074;28;20111;-42
2022/04/04 08:07:07;;;;;;;13.55;7.10;;;;;;;5.44;96.22;101068.59;5015627;28;20115;-44
2022/04/04 08:09:33;;;;;;;14.18;7.10;;;;;;;5.48;94.59;101062.94;5016087;28;20053;-42
2022/04/04 08:11:58;;;;;;;11.60;6.95;;;;;;;5.56;94.70;101049.88;5015261;28;20460;-43
2022/04/04 08:14:24;;;;;;;10.57;6.85;;;;;;;5.62;93.89;101056.53;5029662;28;20150;-42
2022/04/04 08:16:50;;;;;;;15.75;8.43;;;;;;;5.68;93.77;101040.13;5014410;28;20028;-40
2022/04/04 08:19:16;;;;;;;17.13;7.28;;;;;;;5.77;92.87;101038.50;5014189;28;20319;-41
2022/04/04 08:21:42;;;;;;;14.02;7.50;;;;;;;5.82;91.85;101046.94;5014615;28;20504;-41
2022/04/04 08:24:07;;;;;;;12.65;7.45;;;;;;;5.86;91.15;101029.84;5013954;28;20025;-42
2022/04/04 08:26:34;;;;;;;17.63;7.28;;;;;;;5.95;90.02;101030.88;4999361;28;20431;-42
2022/04/04 08:28:59;;;;;;;14.20;7.35;;;;;;;6.01;90.31;101021.59;4996076;28;20025;-43
2022/04/04 08:31:24;;;;;;;13.88;7.40;;;;;;;6.08;90.43;101033.41;4994348;28;21563;-44
2022/04/04 08:33:50;;;;;;;16.42;7.35;;;;;;;6.14;89.71;101025.78;4998142;28;20046;-41
2022/04/04 08:36:16;;;;;;;11.98;6.75;;;;;;;6.18;89.90;101007.81;4998372;28;20049;-41
2022/04/04 08:38:41;;;;;;;13.73;7.53;;;;;;;6.18;89.41;101010.44;4995674;28;20050;-40
2022/04/04 08:41:09;;;;;;;17.70;7.57;;;;;;;6.18;90.31;100999.84;4994130;28;20040;-41
2022/04/04 08:43:43;;;;;;;16.60;7.18;;;;;;;6.13;91.39;101013.47;4998574;28;20456;-49
2022/04/04 08:46:10;;;;;;;19.48;7.72;;;;;;;6.05;90.85;100997.38;5001247;28;20037;-41
2022/04/04 08:48:39;;;;;;;19.90;7.78;;;;;;;5.98;91.71;100996.19;4995178;28;20132;-41
2022/04/04 08:51:09;;;;;;;12.43;6.95;;;;;;;5.95;91.37;100999.91;4993083;28;20523;-42
2022/04/04 08:53:36;;;;;;;14.88;7.05;;;;;;;5.95;91.57;100991.13;4990415;28;20109;-42
2022/04/04 08:56:03;;;;;;;12.73;6.95;;;;;;;5.95;92.83;100984.00;4993976;28;20065;-40
2022/04/04 08:58:29;;;;;;;15.45;8.23;;;;;;;5.83;93.66;100998.28;4994004;28;20060;-40
2022/04/04 09:00:54;;;;;;;21.90;8.18;;;;;;;5.82;94.84;100995.75;4994663;28;20045;-42
2022/04/04 09:03:22;;;;;;;15.32;7.82;;;;;;;5.79;95.75;100996.84;4998904;28;20029;-40
2022/04/04 09:05:55;;;;;;;12.50;7.00;;;;;;;5.81;96.07;100988.78;5008039;28;20565;-40
2022/04/04 09:08:21;;;;;;;15.77;8.85;;;;;;;5.79;97.16;100970.34;5014645;28;20017;-41
2022/04/04 09:10:50;;;;;;;15.55;8.20;;;;;;;5.80;97.35;100964.06;5007371;28;20189;-42
2022/04/04 09:13:21;;;;;;;21.90;8.90;;;;;;;5.77;98.43;100970.47;5008516;28;20084;-42
2022/04/04 09:15:56;;;;;;;16.08;7.80;;;;;;;5.76;97.73;100952.06;4993195;28;20464;-42
2022/04/04 09:18:37;;;;;;;15.80;9.23;;;;;;;5.77;99.12;100969.63;4994736;28;20721;-41
2022/04/04 09:21:04;;;;;;;19.88;9.70;;;;;;;5.77;98.74;100965.19;4993028;28;20026;-41
2022/04/04 09:23:33;;;;;;;14.43;8.30;;;;;;;5.77;99.61;100951.94;4993631;28;20033;-43
2022/04/04 09:26:00;;;;;;;21.63;9.77;;;;;;;5.71;99.98;100956.88;4993595;28;20037;-42
2022/04/04 09:28:26;;;;;;;19.58;9.07;;;;;;;5.66;100.00;100956.44;4994775;28;20333;-47
2022/04/04 09:31:09;;;;;;;19.67;9.82;;;;;;;5.60;100.00;100955.97;4991054;28;20025;-44
2022/04/04 09:33:41;;;;;;;17.50;10.73;;;;;;;5.50;100.00;100962.13;5012435;28;20025;-50
2022/04/04 09:36:08;;;;;;;19.02;11.25;;;;;;;5.35;100.00;100954.47;5004504;28;20499;-50
2022/04/04 09:38:34;;;;;;;21.38;10.25;;;;;;;5.23;100.00;100936.94;4995123;28;20049;-46
2022/04/04 09:41:15;;;;;;;15.15;9.13;;;;;;;5.18;100.00;100937.31;4994933;28;20075;-45
2022/04/04 09:43:57;;;;;;;17.52;9.77;;;;;;;5.13;100.00;100936.84;4994548;28;20096;-48
2022/04/04 09:46:23;;;;;;;18.30;10.32;;;;;;;5.11;100.00;100930.81;4993855;28;20060;-48
2022/04/04 09:49:05;;;;;;;16.92;9.27;;;;;;;5.12;100.00;100945.72;5010073;28;20464;-47
2022/04/04 09:51:42;;;;;;;16.80;9.35;;;;;;;5.11;100.00;100930.81;5013110;28;20468;-45
2022/04/04 09:54:10;;;;;;;18.85;10.30;;;;;;;5.02;100.00;100927.13;5013836;28;20550;-47
2022/04/04 09:56:36;;;;;;;16.45;8.48;;;;;;;4.92;100.00;100931.47;5013687;28;20130;-45
2022/04/04 09:59:02;;;;;;;17.38;9.85;;;;;;;4.85;100.00;100928.47;5014010;28;20116;-46
2022/04/04 10:01:31;;;;;;;15.50;9.75;;;;;;;4.82;100.00;100928.69;5007632;28;20021;-45
2022/04/04 10:03:57;;;;;;;14.15;9.20;;;;;;;4.74;100.00;100915.22;4994418;28;20139;-45
2022/04/04 10:06:26;;;;;;;23.98;10.40;;;;;;;4.69;100.00;100920.06;4993776;28;20087;-47
2022/04/04 10:08:55;;;;;;;18.77;11.18;;;;;;;4.69;100.00;100930.63;4992506;28;20034;-42
2022/04/04 10:11:22;;;;;;;15.82;8.48;;;;;;;4.77;100.00;100898.25;5004356;28;20124;-42
2022/04/04 10:13:49;;;;;;;19.17;10.65;;;;;;;4.79;100.00;100902.47;5001499;28;20526;-43
2022/04/04 10:16:16;;;;;;;24.10;11.40;;;;;;;4.83;100.00;100911.00;4992629;28;20108;-42
2022/04/04 10:18:45;;;;;;;17.98;10.32;;;;;;;4.88;100.00;100906.19;5012766;28;20049;-42
2022/04/04 10:21:11;;;;;;;18.52;10.27;;;;;;;4.92;100.00;100891.78;5012637;28;20083;-44
2022/04/04 10:23:38;;;;;;;20.17;10.98;;;;;;;4.92;100.00;100901.50;5013255;28;20436;-42
2022/04/04 10:26:06;;;;;;;19.10;11.20;;;;;;;4.90;100.00;100891.03;4994509;28;20022;-43
2022/04/04 10:28:34;;;;;;;20.85;12.10;;;;;;;4.86;100.00;100901.03;4992137;28;20101;-42
2022/04/04 10:31:09;;;;;;;21.45;12.43;;;;;;;4.83;100.00;100898.63;4991372;28;20029;-40
2022/04/04 10:33:35;;;;;;;18.30;11.95;;;;;;;4.82;100.00;100898.72;4993533;28;20029;-40
2022/04/04 10:36:04;;;;;;;25.85;13.15;;;;;;;4.80;100.00;100898.88;5003545;28;20127;-40
2022/04/04 10:38:59;;;;;;;21.52;11.65;;;;;;;4.78;100.00;100900.78;5011589;28;20095;-42
2022/04/04 10:41:30;;;;;;;18.65;10.70;;;;;;;4.69;100.00;100884.81;5006830;28;20689;-43
2022/04/04 10:43:56;;;;;;;22.40;13.68;;;;;;;4.66;100.00;100892.03;5012219;28;20177;-41
2022/04/04 10:46:24;;;;;;;20.38;12.50;;;;;;;4.70;100.00;100887.34;5010385;28;20033;-42
2022/04/04 10:49:04;;;;;;;22.15;11.15;;;;;;;4.67;100.00;100880.50;5002801;28;20600;-41
2022/04/04 10:51:32;;;;;;;20.48;13.55;;;;;;;4.64;100.00;100870.16;5011394;28;20128;-45
2022/04/04 10:54:06;;;;;;;28.55;13.45;;;;;;;4.65;100.00;100860.41;4997972;28;20062;-42
2022/04/04 10:56:40;;;;;;;26.58;13.45;;;;;;;4.67;100.00;100867.25;4993278;28;20052;-41
2022/04/04 10:59:15;;;;;;;31.23;14.48;;;;;;;4.73;100.00;100868.56;4992595;28;20156;-42
2022/04/04 11:01:49;;;;;;;20.73;13.80;;;;;;;4.77;100.00;100866.50;4992907;28;20041;-42
2022/04/04 11:07:38;;;;;;;21.67;14.30;;;;;;;4.76;100.00;100856.91;4992935;28;20071;-43
2022/04/04 11:10:06;;;;;;;23.50;14.02;;;;;;;4.71;100.00;100864.38;4991591;28;20717;-44
2022/04/04 11:13:00;;;;;;;21.92;12.75;;;;;;;4.69;100.00;100872.44;5003019;28;20485;-41
2022/04/04 11:15:42;;;;;;;24.13;13.40;;;;;;;4.70;100.00;100833.59;4992184;28;20262;-44
2022/04/04 11:18:07;;;;;;;20.45;12.65;;;;;;;4.71;100.00;100827.34;4994504;28;20780;-45
2022/04/04 11:20:33;;;;;;;21.17;12.63;;;;;;;4.69;100.00;100834.56;4998747;28;20025;-44